Terminal Aerodrome Forecast
Issued by NWS

Home | Current Version | Previous Version | Text Only | Print | Product List | Glossary On
Versions: 1 2 3 4 5 6 7 8 9 10 11 12
000
FTUS46 KSTO 200500
TAFSMF
TAF
KSMF 200520Z 2006/2106 16007KT P6SM SKC
     FM201700 33009KT P6SM FEW250
     FM210200 VRB05KT P6SM FEW250=

USA.gov is the U.S. government's official web portal to all federal, state and local government web resources and services.